CheckWX is a tool to help pilots better visualize weather data.  It is not intended as a substitute for an official pre-flight weather briefing.

21:01:39 UTC

KRYV METAR
Watertown Municipal Airport
Watertown, Wisconsin, USA
Current

27 mins ago

KRYV 162035Z AUTO 07006KT 10SM SCT017 BKN022 OVC038 17/14 A2989 RMK AO2 T01650140
Observed
Jun-16 @ 20:35 UTC
Wind
  • 070° at 6 KTS
Visibility
10 SM
Flight Rules
MVFR
Cloud Levels
  • Scattered at 1,700' AGL
  • Broken at 2,200' AGL
  • Overcast at 3,800' AGL
Temperature
17°C / 63°F
Dewpoint
14°C / 57°F
Humidity
83%
Altimeter
29.89" Hg
Pressure
1012.22 hPa
Previous

47 mins ago

KRYV 162015Z AUTO 06005KT 10SM OVC022 16/14 A2989 RMK AO2 T01560135
Observed
Jun-16 @ 20:15 UTC
Wind
  • 060° at 5 KTS
Visibility
10 SM
Flight Rules
MVFR
Cloud Levels
  • Overcast at 2,200' AGL
Temperature
16°C / 61°F
Dewpoint
14°C / 57°F
Humidity
88%
Altimeter
29.89" Hg
Pressure
1012.22 hPa
Previous

1 hour ago

KRYV 161955Z AUTO 07008KT 10SM BKN014 OVC020 15/13 A2989 RMK AO2 T01500134
Observed
Jun-16 @ 19:55 UTC
Wind
  • 070° at 8 KTS
Visibility
10 SM
Flight Rules
MVFR
Cloud Levels
  • Broken at 1,400' AGL
  • Overcast at 2,000' AGL
Temperature
15°C / 59°F
Dewpoint
13°C / 55°F
Humidity
88%
Altimeter
29.89" Hg
Pressure
1012.22 hPa